Terminal Aerodrome Forecast
Issued by NWS

Home | Current Version | Previous Version | Text Only | Print | Product List | Glossary On
Versions: 1 2 3 4 5 6 7 8 9 10 11 12 13 14 15
252
FTUS44 KCRP 241722
TAFLRD
TAF
KLRD 241722Z 2418/2518 15010KT P6SM SCT050
     FM250200 13013KT P6SM SKC
     FM250600 16006KT P6SM FEW020
      TEMPO 2512/2515 BKN020=

USA.gov is the U.S. government's official web portal to all federal, state and local government web resources and services.